createdAt,value
2023-08-21T00:00:40.813Z,42.66
2023-08-21T00:03:08.402Z,42.57
2023-08-21T00:05:35.022Z,42.72
2023-08-21T00:08:01.578Z,42.73
2023-08-21T00:10:28.143Z,42.72
2023-08-21T00:12:54.819Z,42.57
2023-08-21T00:15:21.508Z,42.64
2023-08-21T00:17:48.369Z,42.55
2023-08-21T00:20:14.996Z,42.31
2023-08-21T00:22:41.662Z,42.25
2023-08-21T00:25:08.443Z,42.26
2023-08-21T00:27:35.030Z,42.27
2023-08-21T00:30:01.581Z,41.97
2023-08-21T00:32:28.169Z,42.04
2023-08-21T00:34:54.722Z,42.01
2023-08-21T00:37:21.235Z,41.98
2023-08-21T00:39:47.734Z,42.03
2023-08-21T00:42:14.287Z,44.34
2023-08-21T00:44:40.875Z,42.92
2023-08-21T00:47:07.435Z,44.80
2023-08-21T00:49:34.131Z,45.72
2023-08-21T00:52:00.683Z,45.85
2023-08-21T00:54:27.256Z,45.81
2023-08-21T00:56:53.887Z,45.66
2023-08-21T00:59:20.896Z,45.51
2023-08-21T01:01:47.522Z,45.42
2023-08-21T01:04:14.029Z,45.25
2023-08-21T01:06:40.731Z,44.89
2023-08-21T01:09:21.375Z,44.86
2023-08-21T01:12:11.098Z,44.83
2023-08-21T01:14:37.607Z,44.59
2023-08-21T01:17:04.449Z,44.47
2023-08-21T01:19:41.880Z,44.34
2023-08-21T01:22:08.435Z,43.99
2023-08-21T01:24:35.028Z,43.82
2023-08-21T01:27:01.788Z,43.59
2023-08-21T01:29:28.431Z,43.56
2023-08-21T01:31:58.222Z,43.31
2023-08-21T01:34:24.838Z,43.24
2023-08-21T01:36:51.401Z,43.16
2023-08-21T01:39:17.903Z,42.85
2023-08-21T01:41:44.524Z,42.75
2023-08-21T01:44:11.042Z,42.75
2023-08-21T01:46:37.571Z,42.63
2023-08-21T01:49:04.141Z,42.61
2023-08-21T01:51:30.714Z,42.58
2023-08-21T01:53:57.301Z,42.58
2023-08-21T01:56:24.466Z,42.57
2023-08-21T01:58:50.992Z,42.45
2023-08-21T02:01:19.246Z,42.72
2023-08-21T02:03:46.272Z,42.45
2023-08-21T02:06:12.876Z,42.32
2023-08-21T02:08:39.543Z,42.39
2023-08-21T02:11:06.132Z,42.11
2023-08-21T02:13:34.139Z,42.17
2023-08-21T02:16:00.842Z,42.19
2023-08-21T02:18:27.443Z,42.03
2023-08-21T02:20:54.005Z,41.94
2023-08-21T02:23:20.560Z,41.83
2023-08-21T02:25:47.448Z,41.81
2023-08-21T02:28:13.979Z,41.76
2023-08-21T02:30:43.513Z,41.91
2023-08-21T02:33:10.174Z,41.82
2023-08-21T02:35:37.229Z,41.88
2023-08-21T02:38:03.888Z,41.77
2023-08-21T02:40:30.477Z,41.89
2023-08-21T02:42:57.051Z,44.17
2023-08-21T02:45:23.608Z,47.20
2023-08-21T02:47:50.152Z,44.98
2023-08-21T02:50:16.765Z,45.61
2023-08-21T02:52:43.364Z,45.71
2023-08-21T02:55:09.959Z,45.45
2023-08-21T02:57:36.547Z,45.50
2023-08-21T03:00:03.901Z,45.43
2023-08-21T03:02:30.577Z,45.29
2023-08-21T03:04:57.242Z,45.12
2023-08-21T03:07:23.793Z,44.97
2023-08-21T03:09:50.344Z,44.75
2023-08-21T03:12:16.918Z,44.52
2023-08-21T03:14:43.462Z,44.13
2023-08-21T03:17:10.000Z,43.94
2023-08-21T03:19:36.575Z,43.61
2023-08-21T03:22:03.131Z,43.18
2023-08-21T03:24:29.683Z,43.37
2023-08-21T03:26:56.329Z,43.04
2023-08-21T03:29:24.256Z,42.85
2023-08-21T03:31:50.901Z,42.75
2023-08-21T03:34:17.402Z,42.70
2023-08-21T03:36:43.922Z,42.63
2023-08-21T03:39:10.472Z,42.73
2023-08-21T03:41:37.002Z,42.64
2023-08-21T03:44:03.541Z,42.65
2023-08-21T03:46:30.151Z,42.57
2023-08-21T03:48:56.846Z,42.49
2023-08-21T03:51:23.339Z,42.50
2023-08-21T03:53:50.428Z,42.42
2023-08-21T03:56:17.061Z,42.40
2023-08-21T03:58:43.641Z,42.23
2023-08-21T04:01:10.252Z,42.19
2023-08-21T04:03:36.864Z,42.13
2023-08-21T04:06:03.458Z,41.90
2023-08-21T04:08:29.990Z,41.91
2023-08-21T04:11:00.416Z,41.83
2023-08-21T04:13:27.119Z,41.72
2023-08-21T04:15:54.717Z,42.93
2023-08-21T04:18:34.400Z,43.04
2023-08-21T04:21:05.865Z,44.98
2023-08-21T04:23:32.470Z,45.75
2023-08-21T04:26:03.012Z,45.85
2023-08-21T04:28:31.004Z,45.78
2023-08-21T04:30:59.030Z,45.60
2023-08-21T04:33:34.811Z,45.57
2023-08-21T04:36:01.446Z,45.34
2023-08-21T04:38:28.024Z,45.40
2023-08-21T04:40:54.576Z,45.05
2023-08-21T04:43:21.096Z,44.86
2023-08-21T04:45:51.778Z,44.69
2023-08-21T04:48:18.446Z,44.34
2023-08-21T04:50:45.013Z,43.83
2023-08-21T04:53:11.546Z,46.96
2023-08-21T04:55:38.215Z,45.60
2023-08-21T04:58:05.133Z,45.68
2023-08-21T05:00:31.910Z,45.78
2023-08-21T05:02:58.605Z,45.58
2023-08-21T05:05:25.425Z,45.36
2023-08-21T05:07:53.073Z,45.25
2023-08-21T05:10:19.642Z,45.08
2023-08-21T05:12:46.446Z,45.15
2023-08-21T05:15:13.020Z,44.78
2023-08-21T05:17:39.662Z,44.53
2023-08-21T05:20:06.365Z,44.15
2023-08-21T05:22:32.902Z,43.42
2023-08-21T05:24:59.455Z,42.90
2023-08-21T05:27:26.033Z,42.53
2023-08-21T05:29:52.590Z,42.28
2023-08-21T05:32:19.130Z,42.00
2023-08-21T05:34:46.103Z,41.89
2023-08-21T05:37:12.823Z,41.79
2023-08-21T05:39:39.365Z,41.62
2023-08-21T05:42:06.007Z,41.66
2023-08-21T05:44:32.539Z,42.05
2023-08-21T05:46:59.081Z,42.98
2023-08-21T05:49:25.936Z,43.71
2023-08-21T05:51:52.478Z,45.23
2023-08-21T05:54:19.139Z,45.57
2023-08-21T05:56:45.654Z,45.57
2023-08-21T05:59:13.053Z,45.43
2023-08-21T06:01:40.068Z,45.40
2023-08-21T06:04:06.658Z,45.24
2023-08-21T06:06:33.328Z,45.14
2023-08-21T06:08:59.802Z,45.30
2023-08-21T06:11:26.625Z,44.96
2023-08-21T06:13:53.219Z,44.90
2023-08-21T06:16:19.848Z,44.67
2023-08-21T06:18:46.602Z,44.38
2023-08-21T06:21:13.140Z,44.39
2023-08-21T06:23:39.677Z,44.27
2023-08-21T06:26:06.304Z,44.09
2023-08-21T06:28:32.889Z,44.09
2023-08-21T06:30:59.658Z,43.77
2023-08-21T06:33:26.393Z,43.77
2023-08-21T06:35:52.992Z,43.51
2023-08-21T06:38:19.543Z,43.19
2023-08-21T06:40:47.131Z,42.87
2023-08-21T06:43:13.723Z,42.76
2023-08-21T06:45:40.252Z,42.37
2023-08-21T06:48:06.980Z,42.40
2023-08-21T06:50:33.544Z,42.29
2023-08-21T06:53:00.081Z,42.13
2023-08-21T06:55:26.630Z,41.96
2023-08-21T06:57:53.107Z,41.76
2023-08-21T07:00:19.727Z,41.89
2023-08-21T07:02:46.633Z,41.97
2023-08-21T07:05:13.248Z,41.68
2023-08-21T07:07:39.929Z,42.90
2023-08-21T07:10:06.710Z,42.32
2023-08-21T07:12:33.349Z,42.26
2023-08-21T07:14:59.891Z,42.11
2023-08-21T07:17:26.428Z,42.21
2023-08-21T07:19:54.017Z,42.24
2023-08-21T07:22:21.606Z,42.09
2023-08-21T07:24:48.977Z,42.00
2023-08-21T07:27:15.505Z,42.03
2023-08-21T07:29:42.007Z,42.28
2023-08-21T07:32:08.569Z,44.02
2023-08-21T07:34:35.388Z,43.32
2023-08-21T07:37:01.929Z,45.10
2023-08-21T07:39:28.538Z,45.58
2023-08-21T07:41:55.080Z,45.97
2023-08-21T07:44:21.644Z,46.40
2023-08-21T07:46:48.252Z,46.18
2023-08-21T07:49:14.725Z,46.03
2023-08-21T07:51:41.241Z,45.70
2023-08-21T07:54:07.776Z,45.39
2023-08-21T07:56:34.420Z,45.09
2023-08-21T07:59:00.918Z,45.08
2023-08-21T08:01:27.549Z,45.11
2023-08-21T08:03:54.406Z,45.01
2023-08-21T08:06:21.006Z,44.72
2023-08-21T08:08:47.631Z,44.62
2023-08-21T08:11:14.173Z,44.45
2023-08-21T08:13:40.715Z,44.38
2023-08-21T08:16:07.286Z,44.17
2023-08-21T08:18:33.883Z,44.19
2023-08-21T08:21:00.456Z,44.06
2023-08-21T08:23:27.021Z,43.65
2023-08-21T08:25:54.343Z,43.64
2023-08-21T08:28:20.943Z,43.65
2023-08-21T08:30:47.530Z,43.42
2023-08-21T08:33:14.085Z,43.20
2023-08-21T08:35:41.889Z,42.83
2023-08-21T08:38:08.455Z,42.89
2023-08-21T08:40:35.238Z,42.37
2023-08-21T08:43:01.739Z,42.33
2023-08-21T08:45:34.474Z,42.12
2023-08-21T08:48:02.001Z,41.95
2023-08-21T08:50:32.109Z,41.85
2023-08-21T08:53:10.024Z,41.87
2023-08-21T08:55:41.587Z,41.76
2023-08-21T08:58:08.143Z,41.74
2023-08-21T09:00:34.684Z,41.75
2023-08-21T09:03:01.227Z,41.76
2023-08-21T09:05:27.771Z,41.81
2023-08-21T09:08:04.187Z,41.91
2023-08-21T09:10:30.718Z,41.93
2023-08-21T09:13:00.134Z,41.83
2023-08-21T09:15:38.467Z,41.70
2023-08-21T09:18:09.970Z,44.34
2023-08-21T09:20:37.156Z,42.93
2023-08-21T09:23:05.238Z,44.42
2023-08-21T09:25:41.432Z,45.62
2023-08-21T09:28:08.443Z,45.93
2023-08-21T09:30:47.942Z,46.03
2023-08-21T09:33:14.621Z,45.77
2023-08-21T09:35:42.889Z,45.69
2023-08-21T09:38:09.418Z,45.31
2023-08-21T09:40:36.139Z,45.22
2023-08-21T09:43:02.742Z,45.12
2023-08-21T09:45:30.095Z,45.02
2023-08-21T09:47:56.741Z,44.92
2023-08-21T09:50:23.553Z,45.08
2023-08-21T09:52:50.132Z,44.96
2023-08-21T09:55:16.693Z,44.58
2023-08-21T09:57:43.264Z,44.33
2023-08-21T10:00:16.614Z,43.91
2023-08-21T10:02:43.473Z,43.83
2023-08-21T10:05:10.763Z,43.53
2023-08-21T10:07:37.414Z,43.39
2023-08-21T10:10:04.255Z,42.97
2023-08-21T10:12:30.982Z,42.93
2023-08-21T10:14:57.552Z,42.58
2023-08-21T10:17:24.064Z,42.33
2023-08-21T10:19:56.530Z,42.14
2023-08-21T10:22:38.696Z,42.14
2023-08-21T10:25:05.590Z,41.81
2023-08-21T10:27:32.111Z,41.86
2023-08-21T10:29:59.342Z,41.59
2023-08-21T10:32:25.860Z,41.62
2023-08-21T10:34:52.822Z,41.74
2023-08-21T10:37:19.366Z,41.64
2023-08-21T10:40:07.519Z,41.69
2023-08-21T10:42:41.766Z,41.99
2023-08-21T10:45:11.883Z,41.86
2023-08-21T10:47:38.506Z,41.92
2023-08-21T10:50:07.838Z,41.76
2023-08-21T10:52:39.111Z,41.60
2023-08-21T10:55:06.026Z,41.45
2023-08-21T10:57:33.097Z,41.76
2023-08-21T11:00:10.339Z,44.87
2023-08-21T11:02:37.364Z,42.54
2023-08-21T11:05:04.742Z,44.14
2023-08-21T11:07:31.414Z,45.24
2023-08-21T11:09:58.163Z,45.39
2023-08-21T11:12:24.916Z,45.61
2023-08-21T11:14:51.562Z,45.50
2023-08-21T11:17:19.975Z,45.24
2023-08-21T11:19:47.911Z,45.12
2023-08-21T11:22:14.501Z,45.11
2023-08-21T11:24:44.169Z,44.97
2023-08-21T11:27:15.328Z,44.80
2023-08-21T11:29:42.815Z,44.64
2023-08-21T11:32:19.223Z,44.66
2023-08-21T11:34:52.858Z,44.45
2023-08-21T11:37:20.273Z,44.22
2023-08-21T11:39:50.925Z,43.99
2023-08-21T11:42:17.772Z,43.92
2023-08-21T11:44:45.191Z,43.84
2023-08-21T11:47:11.813Z,43.60
2023-08-21T11:49:39.170Z,43.50
2023-08-21T11:52:05.885Z,43.18
2023-08-21T11:54:37.214Z,42.94
2023-08-21T11:57:10.129Z,42.96
2023-08-21T11:59:37.139Z,42.41
2023-08-21T12:02:09.109Z,42.09
2023-08-21T12:04:36.238Z,41.72
2023-08-21T12:07:02.791Z,41.73
2023-08-21T12:09:29.459Z,41.70
2023-08-21T12:11:56.178Z,41.50
2023-08-21T12:14:22.792Z,41.46
2023-08-21T12:16:49.433Z,41.40
2023-08-21T12:19:16.288Z,41.85
2023-08-21T12:21:42.940Z,41.51
2023-08-21T12:24:09.552Z,41.39
2023-08-21T12:26:41.086Z,41.45
2023-08-21T12:29:15.318Z,41.46
2023-08-21T12:31:41.981Z,41.56
2023-08-21T12:34:08.631Z,41.24
2023-08-21T12:36:35.935Z,41.33
2023-08-21T12:39:02.584Z,41.48
2023-08-21T12:41:29.102Z,43.55
2023-08-21T12:43:55.724Z,47.83
2023-08-21T12:46:22.605Z,44.33
2023-08-21T12:48:49.267Z,45.34
2023-08-21T12:51:15.911Z,45.56
2023-08-21T12:53:42.545Z,45.46
2023-08-21T12:56:09.155Z,45.63
2023-08-21T12:58:35.665Z,45.41
2023-08-21T13:01:04.496Z,45.27
2023-08-21T13:03:31.275Z,45.22
2023-08-21T13:05:57.945Z,45.06
2023-08-21T13:08:24.638Z,45.03
2023-08-21T13:10:51.753Z,44.92
2023-08-21T13:13:18.379Z,45.03
2023-08-21T13:15:46.153Z,44.87
2023-08-21T13:18:13.155Z,45.06
2023-08-21T13:20:39.867Z,44.64
2023-08-21T13:23:06.387Z,44.28
2023-08-21T13:25:32.977Z,43.95
2023-08-21T13:28:01.264Z,43.89
2023-08-21T13:30:27.963Z,43.70
2023-08-21T13:32:55.255Z,43.49
2023-08-21T13:35:23.915Z,43.29
2023-08-21T13:37:51.118Z,42.95
2023-08-21T13:40:17.975Z,42.78
2023-08-21T13:42:45.085Z,42.33
2023-08-21T13:45:14.997Z,42.13
2023-08-21T13:47:42.319Z,42.01
2023-08-21T13:50:09.678Z,41.82
2023-08-21T13:52:36.342Z,41.75
2023-08-21T13:55:04.002Z,41.70
2023-08-21T13:57:30.599Z,41.55
2023-08-21T13:59:57.166Z,41.42
2023-08-21T14:02:24.449Z,41.38
2023-08-21T14:04:51.220Z,41.46
2023-08-21T14:07:17.938Z,41.23
2023-08-21T14:09:44.544Z,43.31
2023-08-21T14:12:11.084Z,41.65
2023-08-21T14:14:38.611Z,43.87
2023-08-21T14:17:05.476Z,45.06
2023-08-21T14:19:32.408Z,45.26
2023-08-21T14:21:59.300Z,45.37
2023-08-21T14:24:26.069Z,45.09
2023-08-21T14:26:52.790Z,45.02
2023-08-21T14:29:19.496Z,45.03
2023-08-21T14:31:51.406Z,44.89
2023-08-21T14:34:18.093Z,44.72
2023-08-21T14:36:44.730Z,44.41
2023-08-21T14:39:14.130Z,44.17
2023-08-21T14:41:42.418Z,44.17
2023-08-21T14:44:09.185Z,44.07
2023-08-21T14:49:06.955Z,43.73
2023-08-21T14:51:33.546Z,45.48
2023-08-21T14:54:00.103Z,42.51
2023-08-21T14:56:26.695Z,45.36
2023-08-21T14:58:53.287Z,45.79
2023-08-21T15:01:19.810Z,45.68
2023-08-21T15:03:46.439Z,45.48
2023-08-21T15:06:14.397Z,45.31
2023-08-21T15:08:41.081Z,45.13
2023-08-21T15:11:07.644Z,44.85
2023-08-21T15:13:34.158Z,44.64
2023-08-21T15:16:00.758Z,44.28
2023-08-21T15:18:27.308Z,43.75
2023-08-21T15:20:53.862Z,43.48
2023-08-21T15:23:20.339Z,43.28
2023-08-21T15:25:47.008Z,43.24
2023-08-21T15:28:13.474Z,42.82
2023-08-21T15:30:40.409Z,42.75
2023-08-21T15:33:07.071Z,42.47
2023-08-21T15:35:33.587Z,44.65
2023-08-21T15:38:00.159Z,42.47
2023-08-21T15:40:26.808Z,44.67
2023-08-21T15:42:53.385Z,45.35
2023-08-21T15:45:19.992Z,45.40
2023-08-21T15:47:49.255Z,45.36
2023-08-21T15:50:16.715Z,44.97
2023-08-21T15:52:43.269Z,44.97
2023-08-21T15:55:09.864Z,44.76
2023-08-21T15:57:36.446Z,44.77
2023-08-21T16:00:04.881Z,44.60
2023-08-21T16:02:31.489Z,44.19
2023-08-21T16:04:58.110Z,43.73
2023-08-21T16:07:24.632Z,43.72
2023-08-21T16:09:51.181Z,43.27
2023-08-21T16:12:17.751Z,43.11
2023-08-21T16:14:44.266Z,43.08
2023-08-21T16:17:10.745Z,42.71
2023-08-21T16:19:37.734Z,42.53
2023-08-21T16:22:04.715Z,42.57
2023-08-21T16:24:31.387Z,42.39
2023-08-21T16:26:57.936Z,42.26
2023-08-21T16:29:24.472Z,42.19
2023-08-21T16:31:51.277Z,41.87
2023-08-21T16:34:17.833Z,41.77
2023-08-21T16:36:44.454Z,41.64
2023-08-21T16:39:11.101Z,44.20
2023-08-21T16:41:37.666Z,44.46
2023-08-21T16:44:04.389Z,44.37
2023-08-21T16:46:30.955Z,45.06
2023-08-21T16:48:57.506Z,45.28
2023-08-21T16:51:24.027Z,45.19
2023-08-21T16:53:50.580Z,45.04
2023-08-21T16:56:17.351Z,44.82
2023-08-21T16:58:43.940Z,44.66
2023-08-21T17:01:10.585Z,44.71
2023-08-21T17:03:37.230Z,44.51
2023-08-21T17:06:03.788Z,44.29
2023-08-21T17:08:30.325Z,44.20
2023-08-21T17:10:56.871Z,44.05
2023-08-21T17:13:23.431Z,43.85
2023-08-21T17:15:52.104Z,43.56
2023-08-21T17:18:20.284Z,43.42
2023-08-21T17:20:46.862Z,43.36
2023-08-21T17:23:13.413Z,43.08
2023-08-21T17:25:39.954Z,42.96
2023-08-21T17:28:06.490Z,42.90
2023-08-21T17:30:33.506Z,42.75
2023-08-21T17:33:00.170Z,42.48
2023-08-21T17:35:28.641Z,42.21
2023-08-21T17:37:55.539Z,41.76
2023-08-21T17:40:22.386Z,41.89
2023-08-21T17:42:48.904Z,41.58
2023-08-21T17:45:15.569Z,41.62
2023-08-21T17:47:42.290Z,41.63
2023-08-21T17:50:09.125Z,44.74
2023-08-21T17:52:35.660Z,41.94
2023-08-21T17:55:02.246Z,44.12
2023-08-21T17:57:28.872Z,45.08
2023-08-21T17:59:55.669Z,45.42
2023-08-21T18:02:27.220Z,45.40
2023-08-21T18:04:54.456Z,45.37
2023-08-21T18:07:21.231Z,45.40
2023-08-21T18:09:47.791Z,45.25
2023-08-21T18:12:14.389Z,45.00
2023-08-21T18:14:40.987Z,44.71
2023-08-21T18:17:14.413Z,44.77
2023-08-21T18:19:47.670Z,44.65
2023-08-21T18:22:14.776Z,44.36
2023-08-21T18:24:41.448Z,43.78
2023-08-21T18:27:07.964Z,43.71
2023-08-21T18:29:38.582Z,43.52
2023-08-21T18:32:05.397Z,43.27
2023-08-21T18:34:31.991Z,43.02
2023-08-21T18:37:00.367Z,43.06
2023-08-21T18:39:26.924Z,42.91
2023-08-21T18:41:53.818Z,42.58
2023-08-21T18:44:20.428Z,42.25
2023-08-21T18:46:47.010Z,42.16
2023-08-21T18:49:13.592Z,41.92
2023-08-21T18:51:40.150Z,41.84
2023-08-21T18:54:06.684Z,41.86
2023-08-21T18:56:35.126Z,43.48
2023-08-21T18:59:02.819Z,44.08
2023-08-21T19:01:29.393Z,44.82
2023-08-21T19:03:56.174Z,45.56
2023-08-21T19:06:22.760Z,45.64
2023-08-21T19:08:49.307Z,45.61
2023-08-21T19:11:15.953Z,45.48
2023-08-21T19:13:42.561Z,45.28
2023-08-21T19:16:09.133Z,45.31
2023-08-21T19:18:36.362Z,45.12
2023-08-21T19:21:03.368Z,44.99
2023-08-21T19:23:29.971Z,44.88
2023-08-21T19:25:56.537Z,44.92
2023-08-21T19:28:23.078Z,44.56
2023-08-21T19:30:50.564Z,44.42
2023-08-21T19:33:17.978Z,44.30
2023-08-21T19:35:44.447Z,44.15
2023-08-21T19:38:12.830Z,43.89
2023-08-21T19:40:39.393Z,43.71
2023-08-21T19:43:06.164Z,43.70
2023-08-21T19:45:32.868Z,43.55
2023-08-21T19:47:59.585Z,43.54
2023-08-21T19:50:26.100Z,43.18
2023-08-21T19:52:52.691Z,42.92
2023-08-21T19:55:21.560Z,42.72
2023-08-21T19:57:48.103Z,42.55
2023-08-21T20:00:14.826Z,42.45
2023-08-21T20:02:41.604Z,42.22
2023-08-21T20:05:08.767Z,42.11
2023-08-21T20:07:35.332Z,41.98
2023-08-21T20:10:01.800Z,41.95
2023-08-21T20:12:28.345Z,41.92
2023-08-21T20:14:58.341Z,41.82
2023-08-21T20:17:29.610Z,41.63
2023-08-21T20:19:57.189Z,41.92
2023-08-21T20:22:23.766Z,41.76
2023-08-21T20:24:50.369Z,41.97
2023-08-21T20:27:16.912Z,42.04
2023-08-21T20:29:43.491Z,41.92
2023-08-21T20:32:10.030Z,42.15
2023-08-21T20:34:36.639Z,43.89
2023-08-21T20:37:03.295Z,43.98
2023-08-21T20:39:29.818Z,45.08
2023-08-21T20:41:57.545Z,45.72
2023-08-21T20:44:24.099Z,45.84
2023-08-21T20:46:50.643Z,45.73
2023-08-21T20:49:17.223Z,45.47
2023-08-21T20:51:43.826Z,45.49
2023-08-21T20:54:10.466Z,45.37
2023-08-21T20:56:37.041Z,45.24
2023-08-21T20:59:03.530Z,45.22
2023-08-21T21:01:30.195Z,45.13
2023-08-21T21:03:56.808Z,44.99
2023-08-21T21:06:23.321Z,44.70
2023-08-21T21:08:49.918Z,44.75
2023-08-21T21:11:16.468Z,44.60
2023-08-21T21:13:43.120Z,44.44
2023-08-21T21:16:09.753Z,44.17
2023-08-21T21:18:36.224Z,44.00
2023-08-21T21:21:02.761Z,44.00
2023-08-21T21:23:29.823Z,43.69
2023-08-21T21:25:59.854Z,43.52
2023-08-21T21:28:26.361Z,43.47
2023-08-21T21:30:59.041Z,43.15
2023-08-21T21:33:26.431Z,42.81
2023-08-21T21:35:56.325Z,42.50
2023-08-21T21:38:26.750Z,42.36
2023-08-21T21:40:56.516Z,42.32
2023-08-21T21:43:25.149Z,42.38
2023-08-21T21:46:00.816Z,42.02
2023-08-21T21:48:27.870Z,42.11
2023-08-21T21:50:54.571Z,42.13
2023-08-21T21:53:24.058Z,42.04
2023-08-21T21:55:50.655Z,42.14
2023-08-21T21:58:17.204Z,42.28
2023-08-21T22:00:43.770Z,42.18
2023-08-21T22:03:10.377Z,42.11
2023-08-21T22:05:36.974Z,42.02
2023-08-21T22:08:04.449Z,42.09
2023-08-21T22:10:31.859Z,45.47
2023-08-21T22:12:58.662Z,43.33
2023-08-21T22:15:25.144Z,44.17
2023-08-21T22:17:52.547Z,45.63
2023-08-21T22:20:19.317Z,45.88
2023-08-21T22:22:45.828Z,46.10
2023-08-21T22:25:12.368Z,46.00
2023-08-21T22:27:39.212Z,45.78
2023-08-21T22:30:06.284Z,45.72
2023-08-21T22:32:32.836Z,45.73
2023-08-21T22:34:59.557Z,45.49
2023-08-21T22:37:26.205Z,45.52
2023-08-21T22:39:52.752Z,45.28
2023-08-21T22:42:19.231Z,45.19
2023-08-21T22:44:45.836Z,44.97
2023-08-21T22:47:15.140Z,44.91
2023-08-21T22:49:42.369Z,44.65
2023-08-21T22:52:08.928Z,44.43
2023-08-21T22:54:35.513Z,44.27
2023-08-21T22:57:01.997Z,44.26
2023-08-21T22:59:28.500Z,43.92
2023-08-21T23:01:55.029Z,43.76
2023-08-21T23:04:21.559Z,43.55
2023-08-21T23:06:48.120Z,43.28
2023-08-21T23:09:16.292Z,43.28
2023-08-21T23:11:42.789Z,43.17
2023-08-21T23:14:09.379Z,43.04
2023-08-21T23:16:36.447Z,43.13
2023-08-21T23:19:03.129Z,43.08
2023-08-21T23:21:29.696Z,42.98
2023-08-21T23:23:56.422Z,42.89
2023-08-21T23:26:22.914Z,42.82
2023-08-21T23:28:49.519Z,42.85
2023-08-21T23:31:16.035Z,42.92
2023-08-21T23:33:42.692Z,42.74
2023-08-21T23:36:09.241Z,42.74
2023-08-21T23:38:35.809Z,42.65
2023-08-21T23:41:02.368Z,42.60
2023-08-21T23:43:28.905Z,42.47
2023-08-21T23:45:55.409Z,42.36
2023-08-21T23:48:22.033Z,42.43
2023-08-21T23:50:48.564Z,42.24
2023-08-21T23:53:15.061Z,42.24
2023-08-21T23:55:42.241Z,42.05
2023-08-21T23:58:08.742Z,41.88
